Time;durP1;ratioP1;P1;durP2;ratioP2;P2;SDS_P1;SDS_P2;PMS_P1;PMS_P2;Temp;Humidity;BMP_temperature;BMP_pressure;BME280_temperature;BME280_humidity;BME280_pressure;Samples;Min_cycle;Max_cycle;Signal;HPM_P1;HPM_P2
2024/02/04 00:01:41;;;;;;;6.65;2.50;;;;;;;;;;5075366;28;20383;-69
2024/02/04 00:04:07;;;;;;;5.20;2.40;;;;;;;;;;5098754;28;20036;-69
2024/02/04 00:06:32;;;;;;;5.30;2.50;;;;;;;;;;5087185;28;20182;-70
2024/02/04 00:08:57;;;;;;;3.83;2.08;;;;;;;;;;5060353;28;20033;-69
2024/02/04 00:11:23;;;;;;;5.18;2.17;;;;;;;;;;5085772;28;20040;-70
2024/02/04 00:13:48;;;;;;;6.63;2.80;;;;;;;;;;5078754;28;20045;-69
2024/02/04 00:16:14;;;;;;;4.93;2.35;;;;;;;;;;5085592;28;20063;-69
2024/02/04 00:18:39;;;;;;;8.95;3.55;;;;;;;;;;5071008;28;20037;-69
2024/02/04 00:21:04;;;;;;;9.85;2.53;;;;;;;;;;5069558;28;20476;-67
2024/02/04 00:23:30;;;;;;;6.22;2.08;;;;;;;;;;5067614;28;20387;-67
2024/02/04 00:25:55;;;;;;;6.05;2.67;;;;;;;;;;5086997;28;20032;-69
2024/02/04 00:28:21;;;;;;;6.10;2.38;;;;;;;;;;5088360;28;20089;-69
2024/02/04 00:30:46;;;;;;;5.32;2.10;;;;;;;;;;5078347;28;20033;-69
2024/02/04 00:33:11;;;;;;;7.00;2.42;;;;;;;;;;5077857;28;20448;-69
2024/02/04 00:35:37;;;;;;;6.53;2.53;;;;;;;;;;5085762;28;20404;-69
2024/02/04 00:38:03;;;;;;;5.15;2.45;;;;;;;;;;5082640;28;20056;-69
2024/02/04 00:40:28;;;;;;;4.90;2.10;;;;;;;;;;5078769;28;20440;-69
2024/02/04 00:42:53;;;;;;;3.65;2.03;;;;;;;;;;5070234;28;20068;-69
2024/02/04 00:45:19;;;;;;;3.85;2.20;;;;;;;;;;5055474;28;20464;-69
2024/02/04 00:47:44;;;;;;;4.25;1.90;;;;;;;;;;5077327;28;20031;-68
2024/02/04 00:50:10;;;;;;;8.60;2.30;;;;;;;;;;5091732;28;20621;-69
2024/02/04 00:52:35;;;;;;;5.90;2.03;;;;;;;;;;5083614;28;20404;-69
2024/02/04 00:55:00;;;;;;;5.60;2.28;;;;;;;;;;5090429;28;20032;-68
2024/02/04 00:57:25;;;;;;;6.35;2.13;;;;;;;;;;5082220;28;20071;-69
2024/02/04 00:59:51;;;;;;;4.45;1.98;;;;;;;;;;5077010;28;20032;-70
2024/02/04 01:02:16;;;;;;;4.50;1.88;;;;;;;;;;5078035;28;20024;-69
2024/02/04 01:04:42;;;;;;;4.72;2.30;;;;;;;;;;5079298;28;20036;-69
2024/02/04 01:07:07;;;;;;;4.65;1.88;;;;;;;;;;5077260;28;20505;-69
2024/02/04 01:09:32;;;;;;;3.28;1.95;;;;;;;;;;5075277;28;20379;-68
2024/02/04 01:11:58;;;;;;;4.20;2.10;;;;;;;;;;5072185;28;20579;-68
2024/02/04 01:14:23;;;;;;;4.20;1.80;;;;;;;;;;5084382;28;20036;-69
2024/02/04 01:16:48;;;;;;;7.75;2.72;;;;;;;;;;5075149;28;20443;-69
2024/02/04 01:19:14;;;;;;;4.70;2.30;;;;;;;;;;5073144;28;20551;-69
2024/02/04 01:21:39;;;;;;;3.10;2.20;;;;;;;;;;5075460;28;20459;-69
2024/02/04 01:24:04;;;;;;;5.53;2.15;;;;;;;;;;5073511;28;20472;-69
2024/02/04 01:26:30;;;;;;;5.38;2.40;;;;;;;;;;5075790;28;20032;-69
2024/02/04 01:28:55;;;;;;;3.90;2.03;;;;;;;;;;5074307;28;20111;-69
2024/02/04 01:31:21;;;;;;;5.70;2.80;;;;;;;;;;5080512;28;20136;-69
2024/02/04 01:33:46;;;;;;;5.22;2.40;;;;;;;;;;5089334;28;20454;-69
2024/02/04 01:36:11;;;;;;;4.53;2.50;;;;;;;;;;5081321;28;20033;-69
2024/02/04 01:38:37;;;;;;;5.38;2.17;;;;;;;;;;5052847;28;20033;-69
2024/02/04 01:41:02;;;;;;;5.43;1.95;;;;;;;;;;5068175;28;20044;-69
2024/02/04 01:43:27;;;;;;;6.63;2.40;;;;;;;;;;5057193;28;20078;-69
2024/02/04 01:45:53;;;;;;;4.82;2.20;;;;;;;;;;5062759;28;20025;-69
2024/02/04 01:48:20;;;;;;;3.92;2.03;;;;;;;;;;5054740;28;20037;-69
2024/02/04 01:50:46;;;;;;;4.65;1.95;;;;;;;;;;5088996;28;20032;-69
2024/02/04 01:53:12;;;;;;;3.20;1.70;;;;;;;;;;5069974;28;20384;-69
2024/02/04 01:55:39;;;;;;;2.97;1.73;;;;;;;;;;5070155;28;20044;-69
2024/02/04 01:58:04;;;;;;;6.25;1.98;;;;;;;;;;5072281;28;20048;-69
2024/02/04 02:00:30;;;;;;;5.28;2.00;;;;;;;;;;5083627;28;20051;-67
2024/02/04 02:02:56;;;;;;;2.97;1.77;;;;;;;;;;5086379;28;20044;-68
2024/02/04 02:05:22;;;;;;;5.13;2.15;;;;;;;;;;5053156;28;20029;-67
2024/02/04 02:07:51;;;;;;;5.53;2.22;;;;;;;;;;5076524;28;20077;-69
2024/02/04 02:10:17;;;;;;;4.25;2.47;;;;;;;;;;5075251;28;20502;-69
2024/02/04 02:13:04;;;;;;;6.43;2.53;;;;;;;;;;5079678;28;20036;-69
2024/02/04 02:15:32;;;;;;;5.78;3.20;;;;;;;;;;5073708;28;20126;-69
2024/02/04 02:18:02;;;;;;;8.48;2.60;;;;;;;;;;5063157;28;20489;-68
2024/02/04 02:20:41;;;;;;;4.32;2.30;;;;;;;;;;5061356;28;20087;-69
2024/02/04 02:23:11;;;;;;;4.15;1.98;;;;;;;;;;5060596;28;20085;-67
2024/02/04 02:25:36;;;;;;;4.35;2.03;;;;;;;;;;5060542;28;20044;-67
2024/02/04 02:28:02;;;;;;;4.97;1.90;;;;;;;;;;5087813;28;20047;-67
2024/02/04 02:30:27;;;;;;;3.83;1.77;;;;;;;;;;5077707;28;20466;-67
2024/02/04 02:32:53;;;;;;;3.55;2.08;;;;;;;;;;5068626;28;20032;-68
2024/02/04 02:35:19;;;;;;;3.85;2.10;;;;;;;;;;5071946;28;20050;-68
2024/02/04 02:37:57;;;;;;;4.00;2.15;;;;;;;;;;5072832;28;20123;-67
2024/02/04 02:40:28;;;;;;;8.52;2.83;;;;;;;;;;5064609;28;20048;-68
2024/02/04 02:42:55;;;;;;;5.50;2.35;;;;;;;;;;5054611;28;20071;-67
2024/02/04 02:45:22;;;;;;;3.88;2.15;;;;;;;;;;5079248;28;20124;-68
2024/02/04 02:47:48;;;;;;;5.25;2.20;;;;;;;;;;5053927;28;20041;-67
2024/02/04 02:50:13;;;;;;;4.97;2.10;;;;;;;;;;5071832;28;20051;-68
2024/02/04 02:52:39;;;;;;;5.05;2.00;;;;;;;;;;5065067;28;20040;-67
2024/02/04 02:55:04;;;;;;;4.18;1.85;;;;;;;;;;5068298;28;20028;-68
2024/02/04 02:57:30;;;;;;;4.68;1.88;;;;;;;;;;5072041;28;20504;-67
2024/02/04 02:59:55;;;;;;;4.75;1.52;;;;;;;;;;5081339;28;20044;-68
2024/02/04 03:02:20;;;;;;;4.95;1.80;;;;;;;;;;5072160;28;20022;-68
2024/02/04 03:04:46;;;;;;;4.20;1.67;;;;;;;;;;5071266;28;20120;-68
2024/02/04 03:07:11;;;;;;;2.20;1.30;;;;;;;;;;5071358;28;20033;-67
2024/02/04 03:09:36;;;;;;;4.63;1.90;;;;;;;;;;5080881;28;20375;-67
2024/02/04 03:12:02;;;;;;;4.78;1.50;;;;;;;;;;5067129;28;20432;-69
2024/02/04 03:14:28;;;;;;;2.33;1.45;;;;;;;;;;5059901;28;20039;-67
2024/02/04 03:16:53;;;;;;;3.08;1.50;;;;;;;;;;5057651;28;20053;-68
2024/02/04 03:19:18;;;;;;;2.65;1.30;;;;;;;;;;5061842;28;20063;-67
2024/02/04 03:21:43;;;;;;;2.38;1.20;;;;;;;;;;5056879;28;20039;-67
2024/02/04 03:24:09;;;;;;;2.40;1.17;;;;;;;;;;5073758;28;20041;-67
2024/02/04 03:26:34;;;;;;;2.20;1.35;;;;;;;;;;5062746;28;20036;-67
2024/02/04 03:29:00;;;;;;;3.85;1.45;;;;;;;;;;5086519;28;20582;-67
2024/02/04 03:31:25;;;;;;;2.83;1.50;;;;;;;;;;5066317;28;20459;-67
2024/02/04 03:33:50;;;;;;;2.80;1.52;;;;;;;;;;5084017;28;20032;-68
2024/02/04 03:36:19;;;;;;;2.60;1.13;;;;;;;;;;5082097;28;20425;-67
2024/02/04 03:38:44;;;;;;;1.83;1.10;;;;;;;;;;5082119;28;20050;-67
2024/02/04 03:41:09;;;;;;;2.20;1.20;;;;;;;;;;5085185;28;20032;-67
2024/02/04 03:43:36;;;;;;;2.28;1.13;;;;;;;;;;5075367;28;20078;-67
2024/02/04 03:46:01;;;;;;;2.85;1.00;;;;;;;;;;5069061;28;20282;-67
2024/02/04 03:48:27;;;;;;;4.55;1.20;;;;;;;;;;5072393;28;20625;-67
2024/02/04 03:50:52;;;;;;;4.75;1.50;;;;;;;;;;5079394;28;20044;-68
2024/02/04 03:53:18;;;;;;;2.22;0.93;;;;;;;;;;5070591;28;20688;-67
2024/02/04 03:55:44;;;;;;;1.58;0.93;;;;;;;;;;5084625;28;20122;-67
2024/02/04 03:58:09;;;;;;;1.35;0.70;;;;;;;;;;5081692;28;20151;-67
2024/02/04 04:00:35;;;;;;;1.75;0.90;;;;;;;;;;5085730;28;20613;-67
2024/02/04 04:03:00;;;;;;;1.77;0.93;;;;;;;;;;5083362;28;20082;-67
2024/02/04 04:05:26;;;;;;;4.00;0.68;;;;;;;;;;5090055;28;20082;-68
2024/02/04 04:07:51;;;;;;;2.25;0.60;;;;;;;;;;5068614;28;20369;-67
2024/02/04 04:10:17;;;;;;;1.17;0.70;;;;;;;;;;5072219;28;20122;-68
2024/02/04 04:12:42;;;;;;;1.88;0.80;;;;;;;;;;5085340;28;20044;-67
2024/02/04 04:15:08;;;;;;;1.48;0.80;;;;;;;;;;5080955;28;20061;-68
2024/02/04 04:17:33;;;;;;;1.85;0.70;;;;;;;;;;5070545;28;20041;-68
2024/02/04 04:19:58;;;;;;;1.10;0.63;;;;;;;;;;5087287;28;20563;-68
2024/02/04 04:22:24;;;;;;;1.48;0.80;;;;;;;;;;5084948;28;20520;-67
2024/02/04 04:24:49;;;;;;;1.67;0.60;;;;;;;;;;5079634;28;20040;-69
2024/02/04 04:27:14;;;;;;;3.55;0.90;;;;;;;;;;5061811;28;20055;-70
2024/02/04 04:29:40;;;;;;;1.58;0.88;;;;;;;;;;5069180;28;20067;-69
2024/02/04 04:32:05;;;;;;;2.65;0.93;;;;;;;;;;5061090;28;20068;-69
2024/02/04 04:34:31;;;;;;;1.98;0.88;;;;;;;;;;5064778;28;20069;-70
2024/02/04 04:36:56;;;;;;;1.70;0.82;;;;;;;;;;5062807;28;20345;-70
2024/02/04 04:39:21;;;;;;;1.38;0.70;;;;;;;;;;5059127;28;20538;-67
2024/02/04 04:41:47;;;;;;;1.33;0.80;;;;;;;;;;5058966;28;20041;-67
2024/02/04 04:44:12;;;;;;;1.63;0.80;;;;;;;;;;5062201;28;20063;-67
2024/02/04 04:46:39;;;;;;;0.90;0.60;;;;;;;;;;5058065;28;20472;-67
2024/02/04 04:49:04;;;;;;;1.42;0.85;;;;;;;;;;5060946;28;20124;-68
2024/02/04 04:51:30;;;;;;;1.55;0.65;;;;;;;;;;5066569;28;20103;-68
2024/02/04 04:53:55;;;;;;;1.65;0.88;;;;;;;;;;5055181;28;20427;-67
2024/02/04 04:56:21;;;;;;;1.70;0.70;;;;;;;;;;5062936;28;20032;-68
2024/02/04 04:58:46;;;;;;;1.80;0.90;;;;;;;;;;5082714;28;20116;-68
2024/02/04 05:01:11;;;;;;;1.90;1.05;;;;;;;;;;5075795;28;20043;-67
2024/02/04 05:03:37;;;;;;;1.23;0.70;;;;;;;;;;5074214;28;20592;-67
2024/02/04 05:06:02;;;;;;;1.75;0.80;;;;;;;;;;5077390;28;20423;-68
2024/02/04 05:08:27;;;;;;;1.20;0.70;;;;;;;;;;5070614;28;20148;-67
2024/02/04 05:10:53;;;;;;;1.60;0.90;;;;;;;;;;5071579;28;20044;-69
2024/02/04 05:13:18;;;;;;;1.10;0.70;;;;;;;;;;5057523;28;20060;-69
2024/02/04 05:15:43;;;;;;;1.50;0.90;;;;;;;;;;5069918;28;20165;-69
2024/02/04 05:18:08;;;;;;;2.45;0.90;;;;;;;;;;5066731;28;20112;-70
2024/02/04 05:20:34;;;;;;;0.68;0.50;;;;;;;;;;5077427;28;20056;-69
2024/02/04 05:23:00;;;;;;;1.27;0.75;;;;;;;;;;5056343;28;20045;-68
2024/02/04 05:25:25;;;;;;;2.03;0.70;;;;;;;;;;5066490;28;20043;-67
2024/02/04 05:27:51;;;;;;;1.67;0.98;;;;;;;;;;5100108;28;20016;-68
2024/02/04 05:30:16;;;;;;;1.08;0.68;;;;;;;;;;5079335;28;20644;-67
2024/02/04 05:32:44;;;;;;;1.40;0.60;;;;;;;;;;5064776;28;20099;-68
2024/02/04 05:35:09;;;;;;;1.10;0.70;;;;;;;;;;5084570;28;20028;-67
2024/02/04 05:37:34;;;;;;;2.47;0.82;;;;;;;;;;5075410;28;20081;-67
2024/02/04 05:40:00;;;;;;;1.60;0.73;;;;;;;;;;5084429;28;20110;-69
2024/02/04 05:42:25;;;;;;;1.10;0.70;;;;;;;;;;5062651;28;20049;-67
2024/02/04 05:44:51;;;;;;;2.42;0.73;;;;;;;;;;5081882;28;20109;-68
2024/02/04 05:47:16;;;;;;;2.70;0.93;;;;;;;;;;5074803;28;20104;-67
2024/02/04 05:49:41;;;;;;;0.90;0.60;;;;;;;;;;5081219;28;20062;-68
2024/02/04 05:52:07;;;;;;;0.95;0.60;;;;;;;;;;5070044;28;20599;-67
2024/02/04 05:54:37;;;;;;;1.60;0.70;;;;;;;;;;5083500;28;20044;-67
2024/02/04 05:57:03;;;;;;;2.95;0.90;;;;;;;;;;5074932;28;20480;-67
2024/02/04 05:59:28;;;;;;;1.83;0.77;;;;;;;;;;5085741;28;20061;-67
2024/02/04 06:01:53;;;;;;;2.95;0.90;;;;;;;;;;5068061;28;20131;-67
2024/02/04 06:04:19;;;;;;;2.63;0.80;;;;;;;;;;5062842;28;20111;-67
2024/02/04 06:06:44;;;;;;;0.90;0.57;;;;;;;;;;5066606;28;20036;-67
2024/02/04 06:09:10;;;;;;;1.10;0.70;;;;;;;;;;5072275;28;20165;-67
2024/02/04 06:11:35;;;;;;;1.50;0.73;;;;;;;;;;5071333;28;20028;-67
2024/02/04 06:14:01;;;;;;;1.33;0.73;;;;;;;;;;5065904;28;20056;-69
2024/02/04 06:16:26;;;;;;;1.63;0.80;;;;;;;;;;5060859;28;20051;-68
2024/02/04 06:18:55;;;;;;;1.40;0.90;;;;;;;;;;5073641;28;20028;-67
2024/02/04 06:21:20;;;;;;;3.38;0.88;;;;;;;;;;5081880;28;20025;-68
2024/02/04 06:23:45;;;;;;;1.90;0.90;;;;;;;;;;5057223;28;20074;-67
2024/02/04 06:26:11;;;;;;;1.60;0.98;;;;;;;;;;5056988;28;20036;-68
2024/02/04 06:28:36;;;;;;;1.70;0.80;;;;;;;;;;5054542;28;20041;-67
2024/02/04 06:31:02;;;;;;;1.90;1.00;;;;;;;;;;5078938;28;20040;-68
2024/02/04 06:33:27;;;;;;;1.92;1.00;;;;;;;;;;5070684;28;20611;-67
2024/02/04 06:35:53;;;;;;;2.90;0.90;;;;;;;;;;5077341;28;20072;-67
2024/02/04 06:38:18;;;;;;;1.60;0.80;;;;;;;;;;5062168;28;20131;-67
2024/02/04 06:40:43;;;;;;;1.30;0.77;;;;;;;;;;5069138;28;20032;-67
2024/02/04 06:43:09;;;;;;;1.40;0.85;;;;;;;;;;5062323;28;20059;-67
2024/02/04 06:45:34;;;;;;;1.65;0.90;;;;;;;;;;5073409;28;20459;-68
2024/02/04 06:47:59;;;;;;;1.38;0.80;;;;;;;;;;5074403;28;20083;-67
2024/02/04 06:50:25;;;;;;;1.75;0.90;;;;;;;;;;5063926;28;20043;-68
2024/02/04 06:52:50;;;;;;;1.70;0.98;;;;;;;;;;5061925;28;20071;-68
2024/02/04 06:55:15;;;;;;;4.22;1.00;;;;;;;;;;5060715;28;20112;-67
2024/02/04 06:57:41;;;;;;;2.85;1.02;;;;;;;;;;5057125;28;20132;-68
2024/02/04 07:00:08;;;;;;;1.70;0.77;;;;;;;;;;5060707;28;20037;-67
2024/02/04 07:02:34;;;;;;;3.05;0.90;;;;;;;;;;5066267;28;20024;-67
2024/02/04 07:04:59;;;;;;;1.63;0.90;;;;;;;;;;5062891;28;20044;-68
2024/02/04 07:07:24;;;;;;;1.70;0.82;;;;;;;;;;5072399;28;20131;-67
2024/02/04 07:09:50;;;;;;;2.13;0.90;;;;;;;;;;5072395;28;20627;-68
2024/02/04 07:12:15;;;;;;;1.20;0.80;;;;;;;;;;5071773;28;20534;-67
2024/02/04 07:14:40;;;;;;;1.80;0.98;;;;;;;;;;5076729;28;20115;-67
2024/02/04 07:17:06;;;;;;;3.45;1.15;;;;;;;;;;5074540;28;20127;-67
2024/02/04 07:19:31;;;;;;;1.60;0.88;;;;;;;;;;5080849;28;20435;-69
2024/02/04 07:21:56;;;;;;;1.60;0.80;;;;;;;;;;5073972;28;20538;-69
2024/02/04 07:24:22;;;;;;;2.00;1.00;;;;;;;;;;5073741;28;20032;-69
2024/02/04 07:26:47;;;;;;;1.98;0.85;;;;;;;;;;5075003;28;20044;-69
2024/02/04 07:29:13;;;;;;;1.30;0.80;;;;;;;;;;5088519;28;20027;-69
2024/02/04 07:31:38;;;;;;;1.30;0.80;;;;;;;;;;5083872;28;20036;-69
2024/02/04 07:34:04;;;;;;;2.13;1.02;;;;;;;;;;5076458;28;20040;-70
2024/02/04 07:36:30;;;;;;;1.15;0.70;;;;;;;;;;5086889;28;20043;-70
2024/02/04 07:38:55;;;;;;;2.28;0.98;;;;;;;;;;5076610;28;20403;-67
2024/02/04 07:41:21;;;;;;;2.42;1.05;;;;;;;;;;5072042;28;20048;-67
2024/02/04 07:43:48;;;;;;;1.52;0.80;;;;;;;;;;5079713;28;20090;-67
2024/02/04 07:46:13;;;;;;;2.13;1.00;;;;;;;;;;5081810;28;20056;-68
2024/02/04 07:48:38;;;;;;;1.33;0.88;;;;;;;;;;5084149;28;20116;-67
2024/02/04 07:51:04;;;;;;;1.50;0.70;;;;;;;;;;5081181;28;20040;-68
2024/02/04 07:53:29;;;;;;;1.52;0.73;;;;;;;;;;5088745;28;20059;-67
2024/02/04 07:55:54;;;;;;;1.80;1.00;;;;;;;;;;5083041;28;20490;-68
2024/02/04 07:58:20;;;;;;;1.83;0.85;;;;;;;;;;5059418;28;20637;-68
2024/02/04 08:00:45;;;;;;;1.90;0.98;;;;;;;;;;5054312;28;20469;-70
2024/02/04 08:03:10;;;;;;;1.60;0.82;;;;;;;;;;5079153;28;20483;-70
2024/02/04 08:05:36;;;;;;;2.75;0.85;;;;;;;;;;5080224;28;20473;-69
2024/02/04 08:08:01;;;;;;;1.88;0.90;;;;;;;;;;5060323;28;20542;-69
2024/02/04 08:10:27;;;;;;;1.35;0.73;;;;;;;;;;5069072;28;20070;-70
2024/02/04 08:12:53;;;;;;;2.65;0.80;;;;;;;;;;5067583;28;20045;-69
2024/02/04 08:15:19;;;;;;;2.78;1.00;;;;;;;;;;5068543;28;20070;-67
2024/02/04 08:17:44;;;;;;;3.25;0.85;;;;;;;;;;5067456;28;20504;-67
2024/02/04 08:20:10;;;;;;;3.13;0.90;;;;;;;;;;5080502;28;20066;-69
2024/02/04 08:22:36;;;;;;;8.65;1.00;;;;;;;;;;5068129;28;20033;-67
2024/02/04 08:25:02;;;;;;;5.38;1.02;;;;;;;;;;5080323;28;20032;-68
2024/02/04 08:27:27;;;;;;;1.75;0.80;;;;;;;;;;5073080;28;20127;-67
2024/02/04 08:29:53;;;;;;;2.47;1.00;;;;;;;;;;5079807;28;20114;-68
2024/02/04 08:32:18;;;;;;;5.50;1.10;;;;;;;;;;5085935;28;20033;-67
2024/02/04 08:34:43;;;;;;;3.15;1.00;;;;;;;;;;5084541;28;20086;-67
2024/02/04 08:37:09;;;;;;;6.28;1.23;;;;;;;;;;5077531;28;20079;-67
2024/02/04 08:39:34;;;;;;;4.05;1.17;;;;;;;;;;5076668;28;20075;-68
2024/02/04 08:41:59;;;;;;;4.40;1.23;;;;;;;;;;5060361;28;20041;-67
2024/02/04 08:44:24;;;;;;;7.05;1.42;;;;;;;;;;5054922;28;20812;-67
2024/02/04 08:46:50;;;;;;;4.00;1.20;;;;;;;;;;5079444;28;20649;-68
2024/02/04 08:49:15;;;;;;;3.88;1.30;;;;;;;;;;5088324;28;20467;-67
2024/02/04 08:51:40;;;;;;;5.25;1.30;;;;;;;;;;5085196;28;20099;-67
2024/02/04 08:54:06;;;;;;;3.40;1.00;;;;;;;;;;5089740;28;20578;-68
2024/02/04 08:56:32;;;;;;;3.13;1.00;;;;;;;;;;5082364;28;20488;-68
2024/02/04 08:58:57;;;;;;;6.95;1.40;;;;;;;;;;5072450;28;20482;-67
2024/02/04 09:01:22;;;;;;;5.75;1.75;;;;;;;;;;5084826;28;20119;-67
2024/02/04 09:03:48;;;;;;;4.10;1.83;;;;;;;;;;5082612;28;20071;-68
2024/02/04 09:06:13;;;;;;;3.58;1.23;;;;;;;;;;5076338;28;20059;-67
2024/02/04 09:08:38;;;;;;;5.85;1.63;;;;;;;;;;5071118;28;20119;-69
2024/02/04 09:11:04;;;;;;;4.13;1.27;;;;;;;;;;5072501;28;20044;-69
2024/02/04 09:13:29;;;;;;;4.18;1.33;;;;;;;;;;5072738;28;20035;-69
2024/02/04 09:15:55;;;;;;;3.58;1.10;;;;;;;;;;5085915;28;20035;-69
2024/02/04 09:18:20;;;;;;;3.72;1.42;;;;;;;;;;5091029;28;20040;-70
2024/02/04 09:20:45;;;;;;;2.35;0.93;;;;;;;;;;5060579;28;20387;-69
2024/02/04 09:23:11;;;;;;;3.35;1.00;;;;;;;;;;5058103;28;20037;-69
2024/02/04 09:25:36;;;;;;;3.70;1.02;;;;;;;;;;5069149;28;20115;-69
2024/02/04 09:28:02;;;;;;;5.03;1.60;;;;;;;;;;5061927;28;20029;-69
2024/02/04 09:30:27;;;;;;;3.30;1.25;;;;;;;;;;5066756;28;20686;-70
2024/02/04 09:32:52;;;;;;;6.03;1.10;;;;;;;;;;5064614;28;20468;-69
2024/02/04 09:35:18;;;;;;;3.45;1.60;;;;;;;;;;5071416;28;20058;-69
2024/02/04 09:37:43;;;;;;;2.40;1.20;;;;;;;;;;5061148;28;20106;-69
2024/02/04 09:40:09;;;;;;;3.22;1.60;;;;;;;;;;5071428;28;20082;-70
2024/02/04 09:42:34;;;;;;;4.13;1.63;;;;;;;;;;5060145;28;20064;-70
2024/02/04 09:45:00;;;;;;;4.38;0.95;;;;;;;;;;5077265;28;20047;-68
2024/02/04 09:47:26;;;;;;;3.13;1.10;;;;;;;;;;5079557;28;20036;-69
2024/02/04 09:49:55;;;;;;;2.33;1.17;;;;;;;;;;5065009;28;20028;-69
2024/02/04 09:52:22;;;;;;;2.97;1.15;;;;;;;;;;5069058;28;20101;-70
2024/02/04 09:54:56;;;;;;;1.65;0.90;;;;;;;;;;5087268;28;20040;-70
2024/02/04 09:57:21;;;;;;;2.35;0.77;;;;;;;;;;5080472;28;20048;-69
2024/02/04 09:59:47;;;;;;;3.08;0.77;;;;;;;;;;5080693;28;20039;-69
2024/02/04 10:02:13;;;;;;;1.40;0.70;;;;;;;;;;5078866;28;20063;-69
2024/02/04 10:04:38;;;;;;;2.72;0.80;;;;;;;;;;5064989;28;20093;-70
2024/02/04 10:07:04;;;;;;;2.88;0.98;;;;;;;;;;5060763;28;20109;-71
2024/02/04 10:09:30;;;;;;;1.52;0.80;;;;;;;;;;5059202;28;20060;-70
2024/02/04 10:11:56;;;;;;;0.60;0.40;;;;;;;;;;5072382;28;20086;-69
2024/02/04 10:14:21;;;;;;;1.50;0.57;;;;;;;;;;5067890;28;20476;-69
2024/02/04 10:16:47;;;;;;;1.42;0.60;;;;;;;;;;5070184;28;20043;-70
2024/02/04 10:19:12;;;;;;;1.38;0.50;;;;;;;;;;5059095;28;20041;-70
2024/02/04 10:21:38;;;;;;;1.42;0.68;;;;;;;;;;5063359;28;20045;-69
2024/02/04 10:24:03;;;;;;;0.98;0.50;;;;;;;;;;5071622;28;20585;-69
2024/02/04 10:26:34;;;;;;;1.13;0.60;;;;;;;;;;5085810;28;20040;-69
2024/02/04 10:28:59;;;;;;;1.15;0.57;;;;;;;;;;5077897;28;20109;-69
2024/02/04 10:31:25;;;;;;;0.98;0.68;;;;;;;;;;5081794;28;20487;-69
2024/02/04 10:33:51;;;;;;;2.70;0.90;;;;;;;;;;5076584;28;20036;-69
2024/02/04 10:36:17;;;;;;;3.05;0.90;;;;;;;;;;5077935;28;20037;-69
2024/02/04 10:38:42;;;;;;;2.15;0.70;;;;;;;;;;5055493;28;20047;-70
2024/02/04 10:41:10;;;;;;;1.17;0.75;;;;;;;;;;5059099;28;20037;-69
2024/02/04 10:43:37;;;;;;;1.48;0.70;;;;;;;;;;5053654;28;20041;-69
2024/02/04 10:46:12;;;;;;;2.15;1.00;;;;;;;;;;5087744;28;20035;-70
2024/02/04 10:48:44;;;;;;;2.17;0.80;;;;;;;;;;5063690;28;20035;-70
2024/02/04 10:51:13;;;;;;;1.33;0.73;;;;;;;;;;5073589;28;20093;-69
2024/02/04 10:53:44;;;;;;;2.45;0.88;;;;;;;;;;5058434;28;20036;-68
2024/02/04 10:56:36;;;;;;;1.55;0.80;;;;;;;;;;5051819;28;20064;-68
2024/02/04 10:59:03;;;;;;;1.35;0.77;;;;;;;;;;5053256;28;20147;-69
2024/02/04 11:01:28;;;;;;;2.28;1.23;;;;;;;;;;5080806;28;20029;-70
2024/02/04 11:03:54;;;;;;;2.17;0.75;;;;;;;;;;5079621;28;20432;-70
2024/02/04 11:06:23;;;;;;;1.48;0.70;;;;;;;;;;5072555;28;20047;-70
2024/02/04 11:08:50;;;;;;;1.38;0.80;;;;;;;;;;5085203;28;20108;-70
2024/02/04 11:11:16;;;;;;;2.22;1.00;;;;;;;;;;5077117;28;20025;-69
2024/02/04 11:13:43;;;;;;;1.92;0.90;;;;;;;;;;5066181;28;20456;-70
2024/02/04 11:16:19;;;;;;;1.25;0.80;;;;;;;;;;5062965;28;20060;-70
2024/02/04 11:19:08;;;;;;;1.17;0.73;;;;;;;;;;5062119;28;20056;-69
2024/02/04 11:21:33;;;;;;;2.90;0.82;;;;;;;;;;5063325;28;20041;-70
2024/02/04 11:24:01;;;;;;;1.02;0.65;;;;;;;;;;5065282;28;20055;-69
2024/02/04 11:26:26;;;;;;;1.48;0.80;;;;;;;;;;5065112;28;20469;-69
2024/02/04 11:28:52;;;;;;;1.83;0.70;;;;;;;;;;5070413;28;20039;-69
2024/02/04 11:31:18;;;;;;;1.08;0.68;;;;;;;;;;5070373;28;20044;-69
2024/02/04 11:33:43;;;;;;;1.00;0.60;;;;;;;;;;5082473;28;20038;-70
2024/02/04 11:36:13;;;;;;;1.48;0.80;;;;;;;;;;5081256;28;20111;-69
2024/02/04 11:38:39;;;;;;;1.13;0.77;;;;;;;;;;5057911;28;20396;-69
2024/02/04 11:41:05;;;;;;;2.42;0.77;;;;;;;;;;5061277;28;20075;-69
2024/02/04 11:43:33;;;;;;;1.30;0.70;;;;;;;;;;5079681;28;20383;-70
2024/02/04 11:46:00;;;;;;;1.05;0.50;;;;;;;;;;5073452;28;20604;-69
2024/02/04 11:48:33;;;;;;;1.50;0.75;;;;;;;;;;5067814;28;20123;-70
2024/02/04 11:51:01;;;;;;;2.67;0.70;;;;;;;;;;5065750;28;20059;-70
2024/02/04 11:53:32;;;;;;;1.42;0.80;;;;;;;;;;5075217;28;20591;-69
2024/02/04 11:55:58;;;;;;;0.60;0.50;;;;;;;;;;5066441;28;20111;-69
2024/02/04 11:58:23;;;;;;;1.25;0.70;;;;;;;;;;5053004;28;20477;-70
2024/02/04 12:00:53;;;;;;;1.10;0.73;;;;;;;;;;5072984;28;20085;-69
2024/02/04 12:03:31;;;;;;;0.95;0.70;;;;;;;;;;5058503;28;20036;-69
2024/02/04 12:05:58;;;;;;;1.83;0.70;;;;;;;;;;5059863;28;20039;-70
2024/02/04 12:08:24;;;;;;;1.17;0.60;;;;;;;;;;5057032;28;20032;-70
2024/02/04 12:10:49;;;;;;;1.52;0.80;;;;;;;;;;5086255;28;20372;-69
2024/02/04 12:13:15;;;;;;;0.93;0.60;;;;;;;;;;5068824;28;20116;-69
2024/02/04 12:15:40;;;;;;;3.00;0.70;;;;;;;;;;5064102;28;20037;-70
2024/02/04 12:18:10;;;;;;;1.80;0.75;;;;;;;;;;5074363;28;20040;-70
2024/02/04 12:20:35;;;;;;;0.98;0.52;;;;;;;;;;5078047;28;20031;-69
2024/02/04 12:23:05;;;;;;;1.50;0.80;;;;;;;;;;5064121;28;20401;-70
2024/02/04 12:25:31;;;;;;;1.20;0.70;;;;;;;;;;5068570;28;20067;-70
2024/02/04 12:27:58;;;;;;;3.78;1.08;;;;;;;;;;5075266;28;20055;-69
2024/02/04 12:30:23;;;;;;;1.40;0.68;;;;;;;;;;5059695;28;20029;-69
2024/02/04 12:32:59;;;;;;;2.03;0.60;;;;;;;;;;5055107;28;20044;-69
2024/02/04 12:35:25;;;;;;;1.13;0.65;;;;;;;;;;5077634;28;20065;-69
2024/02/04 12:37:58;;;;;;;0.63;0.50;;;;;;;;;;5058608;28;20388;-69
2024/02/04 12:40:27;;;;;;;0.88;0.50;;;;;;;;;;5063742;28;20048;-69
2024/02/04 12:43:01;;;;;;;1.67;0.52;;;;;;;;;;5066463;28;20037;-69
2024/02/04 12:45:27;;;;;;;1.10;0.60;;;;;;;;;;5058415;28;20041;-70
2024/02/04 12:47:54;;;;;;;2.17;0.73;;;;;;;;;;5068173;28;20041;-69
2024/02/04 12:50:20;;;;;;;2.67;0.70;;;;;;;;;;5064837;28;20041;-70
2024/02/04 12:52:46;;;;;;;1.90;0.60;;;;;;;;;;5060100;28;20035;-69
2024/02/04 12:55:23;;;;;;;1.77;0.50;;;;;;;;;;5068074;28;20567;-70
2024/02/04 12:57:49;;;;;;;1.23;0.47;;;;;;;;;;5072912;28;20045;-69
2024/02/04 13:00:17;;;;;;;1.02;0.55;;;;;;;;;;5073019;28;20093;-69
2024/02/04 13:02:43;;;;;;;0.57;0.45;;;;;;;;;;5065150;28;20060;-69
2024/02/04 13:05:08;;;;;;;1.90;0.60;;;;;;;;;;5062441;28;20555;-69
2024/02/04 13:07:34;;;;;;;1.85;0.80;;;;;;;;;;5077910;28;20101;-70
2024/02/04 13:09:59;;;;;;;1.20;0.57;;;;;;;;;;5086400;28;20085;-70
2024/02/04 13:12:25;;;;;;;4.13;0.50;;;;;;;;;;5067422;28;20036;-70
2024/02/04 13:14:50;;;;;;;0.85;0.50;;;;;;;;;;5078354;28;20074;-70
2024/02/04 13:17:16;;;;;;;1.98;0.63;;;;;;;;;;5060348;28;20060;-70
2024/02/04 13:19:42;;;;;;;1.45;0.80;;;;;;;;;;5089723;28;20053;-69
2024/02/04 13:22:09;;;;;;;1.00;0.60;;;;;;;;;;5081166;28;20483;-70
2024/02/04 13:24:35;;;;;;;1.13;0.70;;;;;;;;;;5087947;28;20364;-70
2024/02/04 13:27:00;;;;;;;2.97;0.80;;;;;;;;;;5080435;28;20033;-70
2024/02/04 13:29:27;;;;;;;3.10;1.30;;;;;;;;;;5087134;28;20036;-69
2024/02/04 13:31:52;;;;;;;2.25;1.05;;;;;;;;;;5064392;28;20120;-70
2024/02/04 13:34:17;;;;;;;4.93;1.30;;;;;;;;;;5066047;28;20526;-69
2024/02/04 13:36:43;;;;;;;5.30;1.60;;;;;;;;;;5075479;28;20041;-69
2024/02/04 13:39:09;;;;;;;2.22;0.95;;;;;;;;;;5078416;28;20066;-70
2024/02/04 13:41:35;;;;;;;3.15;0.88;;;;;;;;;;5081043;28;20107;-70
2024/02/04 13:44:01;;;;;;;3.63;1.50;;;;;;;;;;5073259;28;20039;-69
2024/02/04 13:46:26;;;;;;;3.13;1.30;;;;;;;;;;5054254;28;20032;-70
2024/02/04 13:48:52;;;;;;;4.05;1.10;;;;;;;;;;5074297;28;20031;-69
2024/02/04 13:51:17;;;;;;;3.88;1.42;;;;;;;;;;5077608;28;20040;-70
2024/02/04 13:53:42;;;;;;;5.53;1.30;;;;;;;;;;5088817;28;20119;-70
2024/02/04 13:56:08;;;;;;;5.80;1.48;;;;;;;;;;5075387;28;20051;-69
2024/02/04 13:58:33;;;;;;;6.03;1.58;;;;;;;;;;5063728;28;20573;-70
2024/02/04 14:00:59;;;;;;;2.40;0.90;;;;;;;;;;5059130;28;20068;-69
2024/02/04 14:03:25;;;;;;;3.65;1.20;;;;;;;;;;5052848;28;20447;-70
2024/02/04 14:05:50;;;;;;;2.42;1.00;;;;;;;;;;5058887;28;20040;-69
2024/02/04 14:08:16;;;;;;;3.80;1.30;;;;;;;;;;5037442;28;20047;-70
2024/02/04 14:10:41;;;;;;;9.43;1.65;;;;;;;;;;5052502;28;20035;-70
2024/02/04 14:13:06;;;;;;;7.30;2.28;;;;;;;;;;5063967;28;20033;-69
2024/02/04 14:15:32;;;;;;;4.00;1.20;;;;;;;;;;5062457;28;20032;-69
2024/02/04 14:17:58;;;;;;;6.13;1.80;;;;;;;;;;5059655;28;20123;-70
2024/02/04 14:20:23;;;;;;;6.25;1.92;;;;;;;;;;5047967;28;20587;-70
2024/02/04 14:22:50;;;;;;;3.15;1.23;;;;;;;;;;5037280;28;20393;-70
2024/02/04 14:25:16;;;;;;;5.10;1.50;;;;;;;;;;5052396;28;20078;-69
2024/02/04 14:27:41;;;;;;;6.57;1.80;;;;;;;;;;5037649;28;20037;-70
2024/02/04 14:30:07;;;;;;;5.22;1.50;;;;;;;;;;5059829;28;20131;-71
2024/02/04 14:32:32;;;;;;;5.35;1.50;;;;;;;;;;5040660;28;20124;-70
2024/02/04 14:34:57;;;;;;;7.85;2.20;;;;;;;;;;5061714;28;20040;-69
2024/02/04 14:37:23;;;;;;;7.55;1.40;;;;;;;;;;5053357;28;20144;-70